Pagina principale
METAR-TAF:

METAR-TAF

Aeroporti :

San Gallo, Svizzera

latitudine: 47-29-06N, longitudine: 009-33-43E, altezza: 398 m

Osservazione

Il bollettino è stato emesso 35 minuti fa, alle 13:50 UTC
Vento 7 kt da ovest
Temperature 25°C
Umidità 39%
Pressione 1015 hPa
Visibilità 10 km o più
nessuna nube inferiore a 1500 m e nessun cumulonembo

METAR: LSZR 131350Z 28007KT CAVOK 25/10 Q1015 RMK I

Ora: 16:25 (14:25 UTC)

Previsione

Il bollettino è stato emesso 3 ore e 0 minuti fa, alle 11:25 UTC
Previsione valida dal 13 alle 12 UTC al 13 alle 21 UTC
Vento 5 kt da ovest/nord-ovest
Visibilità 10 km o più
nessuna nube inferiore a 1500 m e nessun cumulonembo

TAF: LSZR 131125Z 1312/1321 30005KT CAVOK

Osservazioni e previsioni meteorologiche di più di 4000 aeroporti (messaggi METAR e TAF).

Le stazioni disponibili sono rappresentate dai dischi gialli e rossi sulla carta.

Puntare il mouse per vedere il nome della stazione.

Clicca sopra per visualizzare le osservazioni e previsioni meteorologiche.

Per cambiare la mappa : fare clic sui pulsanti verdi con una croce nera per ingrandire, il pulsante verde con un trattino per diminuire, o sulla freccia verde per le mappe adiacenti.


METAR-TAF: